sensor_id;sensor_type;location;lat;lon;timestamp;P1;durP1;ratioP1;P2;durP2;ratioP2
23804;SDS011;12083;52.098;7.582;2022-09-27T00:01:13;21.70;;;5.40;;
23804;SDS011;12083;52.098;7.582;2022-09-27T00:03:39;13.10;;;5.70;;
23804;SDS011;12083;52.098;7.582;2022-09-27T00:06:07;30.93;;;5.27;;
23804;SDS011;12083;52.098;7.582;2022-09-27T00:08:37;12.93;;;5.70;;
23804;SDS011;12083;52.098;7.582;2022-09-27T00:11:04;18.70;;;5.60;;
23804;SDS011;12083;52.098;7.582;2022-09-27T00:13:31;8.23;;;4.50;;
23804;SDS011;12083;52.098;7.582;2022-09-27T00:16:01;9.33;;;4.70;;
23804;SDS011;12083;52.098;7.582;2022-09-27T00:18:31;18.60;;;5.00;;
23804;SDS011;12083;52.098;7.582;2022-09-27T00:21:07;9.70;;;4.70;;
23804;SDS011;12083;52.098;7.582;2022-09-27T00:23:35;5.90;;;4.27;;
23804;SDS011;12083;52.098;7.582;2022-09-27T00:26:01;17.10;;;4.03;;
23804;SDS011;12083;52.098;7.582;2022-09-27T00:28:27;11.23;;;4.50;;
23804;SDS011;12083;52.098;7.582;2022-09-27T00:30:53;14.70;;;4.57;;
23804;SDS011;12083;52.098;7.582;2022-09-27T00:33:19;8.00;;;3.00;;
23804;SDS011;12083;52.098;7.582;2022-09-27T00:35:45;10.97;;;3.47;;
23804;SDS011;12083;52.098;7.582;2022-09-27T00:38:11;7.23;;;3.30;;
23804;SDS011;12083;52.098;7.582;2022-09-27T00:40:37;13.57;;;2.70;;
23804;SDS011;12083;52.098;7.582;2022-09-27T00:43:08;8.77;;;3.37;;
23804;SDS011;12083;52.098;7.582;2022-09-27T00:45:42;7.73;;;2.40;;
23804;SDS011;12083;52.098;7.582;2022-09-27T00:48:12;8.73;;;2.57;;
23804;SDS011;12083;52.098;7.582;2022-09-27T00:50:42;29.23;;;3.27;;
23804;SDS011;12083;52.098;7.582;2022-09-27T00:56:19;6.37;;;2.60;;
23804;SDS011;12083;52.098;7.582;2022-09-27T00:58:50;20.57;;;2.90;;
23804;SDS011;12083;52.098;7.582;2022-09-27T01:01:22;12.10;;;2.70;;
23804;SDS011;12083;52.098;7.582;2022-09-27T01:03:49;8.40;;;2.03;;
23804;SDS011;12083;52.098;7.582;2022-09-27T01:06:20;12.23;;;2.70;;
23804;SDS011;12083;52.098;7.582;2022-09-27T01:08:47;7.10;;;2.43;;
23804;SDS011;12083;52.098;7.582;2022-09-27T01:14:23;8.73;;;2.47;;
23804;SDS011;12083;52.098;7.582;2022-09-27T01:17:12;6.73;;;1.60;;
23804;SDS011;12083;52.098;7.582;2022-09-27T01:28:05;7.90;;;2.50;;
23804;SDS011;12083;52.098;7.582;2022-09-27T01:30:44;9.03;;;2.30;;
23804;SDS011;12083;52.098;7.582;2022-09-27T01:33:23;8.30;;;2.10;;
23804;SDS011;12083;52.098;7.582;2022-09-27T01:38:39;3.27;;;1.77;;
23804;SDS011;12083;52.098;7.582;2022-09-27T01:44:34;12.23;;;1.60;;
23804;SDS011;12083;52.098;7.582;2022-09-27T01:47:28;7.83;;;2.30;;
23804;SDS011;12083;52.098;7.582;2022-09-27T01:50:20;4.10;;;1.37;;
23804;SDS011;12083;52.098;7.582;2022-09-27T01:52:56;9.77;;;2.53;;
23804;SDS011;12083;52.098;7.582;2022-09-27T01:55:32;6.77;;;1.50;;
23804;SDS011;12083;52.098;7.582;2022-09-27T01:58:32;7.27;;;1.17;;
23804;SDS011;12083;52.098;7.582;2022-09-27T02:01:08;8.83;;;1.60;;
23804;SDS011;12083;52.098;7.582;2022-09-27T02:03:38;4.17;;;1.10;;
23804;SDS011;12083;52.098;7.582;2022-09-27T02:06:35;8.20;;;1.63;;
23804;SDS011;12083;52.098;7.582;2022-09-27T02:09:26;4.90;;;1.43;;
23804;SDS011;12083;52.098;7.582;2022-09-27T02:12:18;7.17;;;1.17;;
23804;SDS011;12083;52.098;7.582;2022-09-27T02:14:59;7.30;;;1.57;;
23804;SDS011;12083;52.098;7.582;2022-09-27T02:17:54;3.47;;;1.43;;
23804;SDS011;12083;52.098;7.582;2022-09-27T02:25:59;13.63;;;1.73;;
23804;SDS011;12083;52.098;7.582;2022-09-27T02:28:30;6.23;;;1.87;;
23804;SDS011;12083;52.098;7.582;2022-09-27T02:31:01;8.43;;;1.13;;
23804;SDS011;12083;52.098;7.582;2022-09-27T02:33:42;8.60;;;1.47;;
23804;SDS011;12083;52.098;7.582;2022-09-27T02:36:12;4.63;;;1.70;;
23804;SDS011;12083;52.098;7.582;2022-09-27T02:38:38;6.83;;;1.60;;
23804;SDS011;12083;52.098;7.582;2022-09-27T02:41:12;9.40;;;1.30;;
23804;SDS011;12083;52.098;7.582;2022-09-27T02:43:39;9.23;;;1.70;;
23804;SDS011;12083;52.098;7.582;2022-09-27T02:49:04;8.77;;;2.77;;
23804;SDS011;12083;52.098;7.582;2022-09-27T03:02:00;3.73;;;1.40;;
23804;SDS011;12083;52.098;7.582;2022-09-27T03:04:39;6.53;;;1.40;;
23804;SDS011;12083;52.098;7.582;2022-09-27T03:07:11;2.50;;;1.40;;
23804;SDS011;12083;52.098;7.582;2022-09-27T03:09:43;1.40;;;1.30;;
23804;SDS011;12083;52.098;7.582;2022-09-27T03:12:10;1.40;;;1.30;;
23804;SDS011;12083;52.098;7.582;2022-09-27T03:14:36;1.07;;;0.97;;
23804;SDS011;12083;52.098;7.582;2022-09-27T03:17:17;4.40;;;1.10;;
23804;SDS011;12083;52.098;7.582;2022-09-27T03:20:12;1.17;;;1.07;;
23804;SDS011;12083;52.098;7.582;2022-09-27T03:22:47;3.20;;;1.00;;
23804;SDS011;12083;52.098;7.582;2022-09-27T03:25:13;4.27;;;1.20;;
23804;SDS011;12083;52.098;7.582;2022-09-27T03:27:39;3.17;;;1.07;;
23804;SDS011;12083;52.098;7.582;2022-09-27T03:30:05;6.20;;;1.00;;
23804;SDS011;12083;52.098;7.582;2022-09-27T03:32:32;3.33;;;0.87;;
23804;SDS011;12083;52.098;7.582;2022-09-27T03:35:24;5.90;;;1.43;;
23804;SDS011;12083;52.098;7.582;2022-09-27T03:37:50;2.63;;;1.00;;
